createdAt,value
2018-05-03T00:01:04.088Z,26.37
2018-05-03T00:03:30.169Z,29.77
2018-05-03T00:05:56.248Z,27.73
2018-05-03T00:08:22.342Z,28.40
2018-05-03T00:10:48.418Z,30.57
2018-05-03T00:13:14.492Z,28.97
2018-05-03T00:15:40.574Z,27.67
2018-05-03T00:18:06.656Z,30.07
2018-05-03T00:20:33.483Z,27.97
2018-05-03T00:22:59.559Z,35.33
2018-05-03T00:25:25.653Z,26.43
2018-05-03T00:27:51.737Z,25.43
2018-05-03T00:30:17.829Z,22.63
2018-05-03T00:32:43.896Z,23.60
2018-05-03T00:35:09.972Z,26.47
2018-05-03T00:37:36.041Z,22.13
2018-05-03T00:40:02.110Z,22.63
2018-05-03T00:42:28.176Z,24.70
2018-05-03T00:44:54.256Z,23.70
2018-05-03T00:47:21.063Z,25.53
2018-05-03T00:49:47.143Z,31.43
2018-05-03T00:52:13.240Z,32.73
2018-05-03T00:54:47.279Z,32.13
2018-05-03T00:57:13.340Z,32.73
2018-05-03T00:59:39.400Z,37.67
2018-05-03T01:02:06.235Z,32.10
2018-05-03T01:04:32.297Z,35.03
2018-05-03T01:06:58.373Z,27.70
2018-05-03T01:09:24.450Z,30.20
2018-05-03T01:11:50.544Z,33.17
2018-05-03T01:14:17.367Z,31.90
2018-05-03T01:16:43.465Z,30.87
2018-05-03T01:19:09.574Z,34.60
2018-05-03T01:21:35.749Z,33.67
2018-05-03T01:24:01.909Z,34.70
2018-05-03T01:26:28.101Z,45.47
2018-05-03T01:28:54.225Z,49.30
2018-05-03T01:31:20.369Z,51.13
2018-05-03T01:33:47.284Z,47.97
2018-05-03T01:36:26.590Z,36.23
2018-05-03T01:38:52.747Z,50.47
2018-05-03T01:41:18.885Z,42.77
2018-05-03T01:43:45.029Z,44.37
2018-05-03T01:46:11.121Z,34.93
2018-05-03T01:48:37.184Z,35.07
2018-05-03T01:51:04.733Z,41.57
2018-05-03T01:53:30.801Z,37.17
2018-05-03T01:55:56.860Z,37.53
2018-05-03T01:58:22.936Z,36.23
2018-05-03T02:00:49.009Z,40.20
2018-05-03T02:03:15.072Z,38.80
2018-05-03T02:05:41.131Z,46.37
2018-05-03T02:08:07.196Z,66.57
2018-05-03T02:10:33.263Z,49.83
2018-05-03T02:13:00.080Z,57.33
2018-05-03T02:15:26.148Z,57.10
2018-05-03T02:17:52.204Z,93.83
2018-05-03T02:20:18.257Z,146.17
2018-05-03T02:22:44.320Z,77.50
2018-05-03T02:25:10.387Z,70.30
2018-05-03T02:27:36.432Z,77.97
2018-05-03T02:30:03.245Z,86.07
2018-05-03T02:32:29.323Z,54.87
2018-05-03T02:34:56.132Z,50.73
2018-05-03T02:37:22.188Z,44.33
2018-05-03T02:39:48.993Z,49.33
2018-05-03T02:42:15.060Z,49.90
2018-05-03T02:44:41.872Z,47.20
2018-05-03T02:47:07.923Z,42.37
2018-05-03T02:49:34.752Z,41.70
2018-05-03T02:52:00.821Z,46.10
2018-05-03T02:54:26.884Z,47.07
2018-05-03T02:56:52.956Z,47.83
2018-05-03T02:59:37.896Z,48.53
2018-05-03T03:02:10.200Z,46.40
2018-05-03T03:12:16.719Z,47.93
2018-05-03T03:15:07.713Z,44.80
2018-05-03T03:17:59.531Z,48.47
2018-05-03T03:24:20.663Z,40.23
2018-05-03T03:27:11.780Z,41.27
2018-05-03T03:29:57.298Z,39.67
2018-05-03T03:32:42.072Z,45.53
2018-05-03T03:38:55.552Z,46.93
2018-05-03T03:41:45.939Z,40.13
2018-05-03T03:44:30.716Z,42.43
2018-05-03T03:46:56.804Z,39.00
2018-05-03T03:49:22.886Z,42.17
2018-05-03T03:51:48.960Z,42.47
2018-05-03T03:54:15.064Z,40.87
2018-05-03T03:56:41.139Z,41.17
2018-05-03T03:59:07.293Z,37.00
2018-05-03T04:01:34.021Z,40.33
2018-05-03T04:04:00.099Z,38.70
2018-05-03T04:06:26.164Z,33.07
2018-05-03T04:08:52.223Z,42.57
2018-05-03T04:11:19.032Z,36.20
2018-05-03T04:13:45.092Z,34.50
2018-05-03T04:16:11.147Z,33.53
2018-05-03T04:18:55.953Z,36.17
2018-05-03T04:21:40.803Z,35.60
2018-05-03T04:24:25.560Z,34.93
2018-05-03T04:26:51.628Z,36.10
2018-05-03T04:29:18.429Z,34.90
2018-05-03T04:31:44.496Z,37.80
2018-05-03T04:34:11.305Z,36.77
2018-05-03T04:36:37.372Z,33.30
2018-05-03T04:39:04.404Z,34.03
2018-05-03T04:41:31.212Z,34.70
2018-05-03T04:43:57.267Z,32.13
2018-05-03T04:46:24.068Z,31.20
2018-05-03T04:48:50.157Z,37.00
2018-05-03T04:51:16.220Z,31.00
2018-05-03T04:53:42.296Z,35.07
2018-05-03T04:56:09.104Z,32.83
2018-05-03T04:58:35.191Z,32.73
2018-05-03T05:01:01.267Z,33.33
2018-05-03T05:03:27.349Z,35.80
2018-05-03T05:05:53.419Z,31.27
2018-05-03T05:08:19.496Z,30.43
2018-05-03T05:10:45.576Z,30.03
2018-05-03T05:13:12.402Z,30.40
2018-05-03T05:15:38.496Z,31.67
2018-05-03T05:18:04.572Z,29.73
2018-05-03T05:20:31.457Z,26.83
2018-05-03T05:22:57.474Z,24.07
2018-05-03T05:25:23.563Z,23.77
2018-05-03T05:27:49.632Z,21.60
2018-05-03T05:30:15.724Z,23.53
2018-05-03T05:32:42.551Z,22.03
2018-05-03T05:35:08.632Z,20.70
2018-05-03T05:37:34.700Z,20.70
2018-05-03T05:40:00.781Z,18.03
2018-05-03T05:42:26.875Z,18.60
2018-05-03T05:44:52.958Z,19.60
2018-05-03T05:47:19.025Z,19.13
2018-05-03T05:49:45.855Z,18.00
2018-05-03T05:52:12.676Z,19.60
2018-05-03T05:54:38.788Z,19.50
2018-05-03T05:57:04.868Z,21.50
2018-05-03T05:59:30.940Z,19.63
2018-05-03T06:01:57.004Z,18.07
2018-05-03T06:04:23.806Z,19.03
2018-05-03T06:06:49.884Z,21.57
2018-05-03T06:09:15.956Z,21.80
2018-05-03T06:11:42.028Z,24.10
2018-05-03T06:14:08.836Z,23.57
2018-05-03T06:16:34.900Z,22.67
2018-05-03T06:19:00.974Z,20.17
2018-05-03T06:21:27.040Z,19.63
2018-05-03T06:23:53.842Z,20.13
2018-05-03T06:26:19.904Z,21.40
2018-05-03T06:28:46.704Z,20.37
2018-05-03T06:31:12.792Z,21.10
2018-05-03T06:33:38.852Z,19.33
2018-05-03T06:36:04.905Z,21.40
2018-05-03T06:38:31.048Z,21.63
2018-05-03T06:40:57.063Z,19.87
2018-05-03T06:43:23.880Z,21.43
2018-05-03T06:45:49.965Z,19.43
2018-05-03T06:48:16.031Z,20.00
2018-05-03T06:50:42.137Z,23.47
2018-05-03T06:53:08.179Z,19.13
2018-05-03T06:55:34.240Z,20.67
2018-05-03T06:58:01.053Z,19.47
2018-05-03T07:00:27.116Z,23.33
2018-05-03T07:02:54.011Z,19.27
2018-05-03T07:05:20.105Z,20.30
2018-05-03T07:07:46.175Z,21.17
2018-05-03T07:10:31.236Z,16.40
2018-05-03T07:12:59.361Z,20.03
2018-05-03T07:15:38.640Z,18.63
2018-05-03T07:18:04.707Z,18.23
2018-05-03T07:20:31.547Z,23.70
2018-05-03T07:22:58.344Z,20.03
2018-05-03T07:25:34.601Z,20.10
2018-05-03T07:28:12.576Z,18.50
2018-05-03T07:30:43.496Z,14.93
2018-05-03T07:33:09.595Z,17.63
2018-05-03T07:38:36.619Z,14.83
2018-05-03T07:41:02.796Z,15.00
2018-05-03T07:43:37.004Z,13.47
2018-05-03T07:46:05.084Z,14.50
2018-05-03T07:48:42.947Z,14.07
2018-05-03T07:51:08.904Z,15.47
2018-05-03T07:53:48.773Z,13.80
2018-05-03T07:56:35.660Z,14.83
2018-05-03T07:59:02.452Z,14.90
2018-05-03T08:01:28.536Z,15.60
2018-05-03T08:03:54.616Z,17.00
2018-05-03T08:06:20.691Z,15.70
2018-05-03T08:09:14.736Z,14.93
2018-05-03T08:14:59.248Z,15.30
2018-05-03T08:17:25.329Z,15.67
2018-05-03T08:19:51.401Z,16.47
2018-05-03T08:22:17.473Z,18.77
2018-05-03T08:24:43.580Z,15.07
2018-05-03T08:27:09.661Z,16.47
2018-05-03T08:29:35.737Z,15.30
2018-05-03T08:32:01.816Z,14.23
2018-05-03T08:34:27.904Z,13.57
2018-05-03T08:36:53.991Z,14.00
2018-05-03T08:39:20.808Z,14.73
2018-05-03T08:41:46.884Z,14.90
2018-05-03T08:44:12.958Z,13.37
2018-05-03T08:46:39.041Z,14.63
2018-05-03T08:49:05.108Z,13.73
2018-05-03T08:51:31.203Z,14.33
2018-05-03T08:53:57.275Z,13.77
2018-05-03T08:56:23.357Z,14.97
2018-05-03T08:58:49.436Z,13.93
2018-05-03T09:01:16.305Z,14.23
2018-05-03T09:03:42.333Z,13.73
2018-05-03T09:06:08.404Z,13.93
2018-05-03T09:08:34.490Z,15.17
2018-05-03T09:11:00.558Z,13.87
2018-05-03T09:13:26.644Z,14.13
2018-05-03T09:15:52.700Z,14.93
2018-05-03T09:18:18.780Z,13.43
2018-05-03T09:30:17.665Z,14.10
2018-05-03T09:32:43.736Z,13.80
2018-05-03T09:35:10.550Z,13.70
2018-05-03T09:37:36.712Z,13.73
2018-05-03T09:40:03.525Z,13.68
2018-05-03T09:42:29.592Z,14.15
2018-05-03T09:44:55.664Z,13.52
2018-05-03T09:47:21.723Z,14.48
2018-05-03T09:49:48.540Z,13.67
2018-05-03T09:52:14.609Z,14.57
2018-05-03T09:54:40.692Z,14.35
2018-05-03T09:57:06.763Z,14.20
2018-05-03T09:59:32.848Z,12.73
2018-05-03T10:01:58.912Z,13.68
2018-05-03T10:04:25.006Z,14.87
2018-05-03T10:06:51.083Z,12.63
2018-05-03T10:09:17.156Z,14.10
2018-05-03T10:11:43.978Z,12.60
2018-05-03T10:14:10.072Z,15.07
2018-05-03T10:16:36.137Z,13.87
2018-05-03T10:19:02.192Z,13.02
2018-05-03T10:21:29.004Z,13.27
2018-05-03T10:23:55.069Z,13.15
2018-05-03T10:26:21.140Z,14.95
2018-05-03T10:28:47.287Z,13.45
2018-05-03T10:31:13.304Z,13.35
2018-05-03T10:33:39.367Z,13.88
2018-05-03T10:36:05.449Z,14.18
2018-05-03T10:38:32.620Z,12.82
2018-05-03T10:40:59.433Z,13.65
2018-05-03T10:43:25.499Z,12.68
2018-05-03T10:45:52.309Z,13.43
2018-05-03T10:48:18.393Z,12.55
2018-05-03T10:50:44.456Z,13.18
2018-05-03T10:53:10.529Z,12.73
2018-05-03T10:55:36.585Z,12.30
2018-05-03T10:58:02.660Z,13.00
2018-05-03T11:00:29.500Z,12.20
2018-05-03T11:02:56.332Z,12.37
2018-05-03T11:05:22.440Z,12.80
2018-05-03T11:07:48.495Z,12.95
2018-05-03T11:10:15.316Z,12.13
2018-05-03T11:12:41.393Z,12.60
2018-05-03T11:15:07.472Z,11.73
2018-05-03T11:17:33.568Z,13.70
2018-05-03T11:19:59.648Z,12.80
2018-05-03T11:22:26.479Z,12.45
2018-05-03T11:24:53.304Z,13.77
2018-05-03T11:27:19.384Z,13.70
2018-05-03T11:29:53.613Z,12.40
2018-05-03T11:32:19.691Z,13.27
2018-05-03T11:34:46.516Z,12.32
2018-05-03T11:37:12.601Z,12.35
2018-05-03T11:39:38.680Z,12.02
2018-05-03T11:42:05.501Z,13.35
2018-05-03T11:44:31.586Z,12.70
2018-05-03T11:46:57.662Z,12.37
2018-05-03T11:49:23.749Z,14.77
2018-05-03T11:51:49.820Z,13.57
2018-05-03T11:54:16.648Z,13.70
2018-05-03T11:56:42.719Z,13.62
2018-05-03T11:59:08.856Z,13.45
2018-05-03T12:01:35.639Z,14.65
2018-05-03T12:04:01.729Z,14.35
2018-05-03T12:06:27.811Z,13.50
2018-05-03T12:08:54.640Z,14.50
2018-05-03T12:11:20.716Z,13.62
2018-05-03T12:13:46.780Z,14.23
2018-05-03T12:16:12.868Z,14.32
2018-05-03T12:18:38.951Z,13.80
2018-05-03T12:21:05.064Z,14.23
2018-05-03T12:23:31.122Z,12.95
2018-05-03T12:25:57.252Z,12.85
2018-05-03T12:28:23.328Z,12.98
2018-05-03T12:30:49.409Z,13.07
2018-05-03T12:33:15.488Z,14.32
2018-05-03T12:35:41.560Z,12.80
2018-05-03T12:38:07.640Z,13.77
2018-05-03T12:40:33.709Z,12.50
2018-05-03T12:42:59.787Z,13.30
2018-05-03T12:45:25.880Z,12.45
2018-05-03T12:47:51.971Z,13.05
2018-05-03T12:50:18.816Z,13.05
2018-05-03T12:52:45.629Z,12.65
2018-05-03T12:55:11.712Z,12.90
2018-05-03T12:57:37.804Z,12.98
2018-05-03T13:00:04.633Z,13.85
2018-05-03T13:02:30.737Z,12.63
2018-05-03T13:04:56.799Z,15.80
2018-05-03T13:07:23.608Z,12.88
2018-05-03T13:09:49.688Z,12.48
2018-05-03T13:12:15.760Z,13.05
2018-05-03T13:14:41.843Z,12.50
2018-05-03T13:17:07.916Z,12.20
2018-05-03T13:19:34.004Z,12.48
2018-05-03T13:22:00.073Z,12.88
2018-05-03T13:24:26.160Z,13.65
2018-05-03T13:26:52.232Z,11.48
2018-05-03T13:29:19.060Z,11.15
2018-05-03T13:31:45.149Z,12.98
2018-05-03T13:34:11.254Z,12.27
2018-05-03T13:36:37.325Z,11.73
2018-05-03T13:39:03.403Z,9.80
2018-05-03T13:41:29.560Z,11.63
2018-05-03T13:43:55.640Z,7.30
2018-05-03T13:46:22.473Z,7.30
2018-05-03T13:48:49.298Z,11.07
2018-05-03T13:51:15.373Z,8.25
2018-05-03T13:53:41.449Z,6.70
2018-05-03T13:56:07.552Z,6.10
2018-05-03T13:58:33.624Z,7.15
2018-05-03T14:00:59.708Z,7.85
2018-05-03T14:03:25.768Z,6.68
2018-05-03T14:05:51.839Z,6.20
2018-05-03T14:08:18.665Z,6.18
2018-05-03T14:10:45.477Z,7.95
2018-05-03T14:13:11.544Z,6.80
2018-05-03T14:15:38.360Z,7.10
2018-05-03T14:18:04.430Z,7.35
2018-05-03T14:20:30.495Z,8.43
2018-05-03T14:22:56.589Z,9.02
2018-05-03T14:25:22.655Z,7.50
2018-05-03T14:27:48.723Z,7.62
2018-05-03T14:30:15.523Z,7.43
2018-05-03T14:32:43.616Z,7.10
2018-05-03T14:35:09.692Z,9.73
2018-05-03T14:37:35.767Z,9.18
2018-05-03T14:40:02.567Z,8.18
2018-05-03T14:42:28.636Z,11.63
2018-05-03T14:44:55.453Z,8.63
2018-05-03T14:47:21.589Z,8.30
2018-05-03T14:49:47.603Z,11.45
2018-05-03T14:52:13.668Z,9.75
2018-05-03T14:54:40.479Z,10.95
2018-05-03T14:57:06.543Z,10.15
2018-05-03T14:59:32.630Z,8.80
2018-05-03T15:01:58.710Z,8.77
2018-05-03T15:04:24.777Z,9.32
2018-05-03T15:06:50.840Z,8.85
2018-05-03T15:09:17.652Z,8.90
2018-05-03T15:11:43.720Z,9.27
2018-05-03T15:14:09.805Z,8.73
2018-05-03T15:16:35.904Z,9.75
2018-05-03T15:19:01.961Z,10.52
2018-05-03T15:21:28.025Z,8.50
2018-05-03T15:23:54.117Z,8.50
2018-05-03T15:26:20.924Z,9.23
2018-05-03T15:28:46.988Z,9.43
2018-05-03T15:31:13.800Z,8.80
2018-05-03T15:33:39.871Z,9.90
2018-05-03T15:36:05.964Z,9.00
2018-05-03T15:38:32.017Z,9.70
2018-05-03T15:40:58.105Z,7.78
2018-05-03T15:43:24.163Z,6.97
2018-05-03T15:45:51.030Z,9.50
2018-05-03T15:48:17.095Z,6.00
2018-05-03T15:50:43.164Z,8.43
2018-05-03T15:53:09.241Z,6.12
2018-05-03T15:55:35.322Z,7.10
2018-05-03T15:58:01.385Z,5.95
2018-05-03T16:00:27.456Z,6.43
2018-05-03T16:02:54.281Z,9.55
2018-05-03T16:05:25.866Z,8.80
2018-05-03T16:07:51.960Z,5.65
2018-05-03T16:10:18.039Z,7.68
2018-05-03T16:12:44.124Z,9.77
2018-05-03T16:15:10.960Z,4.80
2018-05-03T16:17:37.796Z,5.62
2018-05-03T16:20:03.866Z,6.00
2018-05-03T16:22:29.954Z,6.43
2018-05-03T16:24:56.776Z,5.82
2018-05-03T16:27:22.866Z,7.12
2018-05-03T16:29:48.945Z,6.50
2018-05-03T16:32:15.020Z,5.37
2018-05-03T16:34:41.101Z,8.38
2018-05-03T16:37:07.915Z,6.15
2018-05-03T16:39:33.992Z,6.97
2018-05-03T16:42:00.104Z,5.50
